sensor_id;sensor_type;location;lat;lon;timestamp;temperature;humidity
3699;DHT22;1865;50.918;7.092;2023-05-02T00:01:37;14.30;56.90
3699;DHT22;1865;50.918;7.092;2023-05-02T00:04:03;14.40;56.30
3699;DHT22;1865;50.918;7.092;2023-05-02T00:06:29;14.40;56.80
3699;DHT22;1865;50.918;7.092;2023-05-02T00:08:58;14.40;56.70
3699;DHT22;1865;50.918;7.092;2023-05-02T00:11:23;14.30;56.50
3699;DHT22;1865;50.918;7.092;2023-05-02T00:13:49;14.30;56.80
3699;DHT22;1865;50.918;7.092;2023-05-02T00:16:14;14.30;56.80
3699;DHT22;1865;50.918;7.092;2023-05-02T00:18:40;14.40;56.90
3699;DHT22;1865;50.918;7.092;2023-05-02T00:21:06;14.40;56.90
3699;DHT22;1865;50.918;7.092;2023-05-02T00:23:32;14.50;56.90
3699;DHT22;1865;50.918;7.092;2023-05-02T00:25:58;14.40;56.90
3699;DHT22;1865;50.918;7.092;2023-05-02T00:28:23;14.50;56.90
3699;DHT22;1865;50.918;7.092;2023-05-02T00:30:50;14.50;56.70
3699;DHT22;1865;50.918;7.092;2023-05-02T00:33:16;14.40;56.60
3699;DHT22;1865;50.918;7.092;2023-05-02T00:35:41;14.40;56.70
3699;DHT22;1865;50.918;7.092;2023-05-02T00:38:07;14.40;56.80
3699;DHT22;1865;50.918;7.092;2023-05-02T00:40:46;14.30;56.90
3699;DHT22;1865;50.918;7.092;2023-05-02T00:43:12;14.30;57.20
3699;DHT22;1865;50.918;7.092;2023-05-02T00:45:39;14.30;57.40
3699;DHT22;1865;50.918;7.092;2023-05-02T00:48:06;14.20;57.60
3699;DHT22;1865;50.918;7.092;2023-05-02T00:50:36;14.30;57.70
3699;DHT22;1865;50.918;7.092;2023-05-02T00:53:03;14.30;57.40
3699;DHT22;1865;50.918;7.092;2023-05-02T00:55:30;14.30;57.40
3699;DHT22;1865;50.918;7.092;2023-05-02T00:57:57;14.30;57.20
3699;DHT22;1865;50.918;7.092;2023-05-02T01:00:30;14.30;57.30
3699;DHT22;1865;50.918;7.092;2023-05-02T01:03:09;14.30;57.60
3699;DHT22;1865;50.918;7.092;2023-05-02T01:06:11;14.30;57.50
3699;DHT22;1865;50.918;7.092;2023-05-02T01:08:51;14.40;57.00
3699;DHT22;1865;50.918;7.092;2023-05-02T01:14:04;14.40;57.50
3699;DHT22;1865;50.918;7.092;2023-05-02T01:16:34;14.50;57.80
3699;DHT22;1865;50.918;7.092;2023-05-02T01:19:05;14.50;58.00
3699;DHT22;1865;50.918;7.092;2023-05-02T01:21:34;14.60;58.30
3699;DHT22;1865;50.918;7.092;2023-05-02T01:24:13;14.70;58.30
3699;DHT22;1865;50.918;7.092;2023-05-02T01:26:50;14.80;58.10
3699;DHT22;1865;50.918;7.092;2023-05-02T01:29:17;14.90;57.90
3699;DHT22;1865;50.918;7.092;2023-05-02T01:31:47;15.00;57.90
3699;DHT22;1865;50.918;7.092;2023-05-02T01:34:15;15.10;57.50
3699;DHT22;1865;50.918;7.092;2023-05-02T01:36:43;15.20;57.30
3699;DHT22;1865;50.918;7.092;2023-05-02T01:39:10;15.30;57.30
3699;DHT22;1865;50.918;7.092;2023-05-02T01:41:38;15.30;57.20
3699;DHT22;1865;50.918;7.092;2023-05-02T01:44:06;15.30;56.60
3699;DHT22;1865;50.918;7.092;2023-05-02T01:46:33;15.30;57.00
3699;DHT22;1865;50.918;7.092;2023-05-02T01:49:02;15.20;57.10
3699;DHT22;1865;50.918;7.092;2023-05-02T01:51:31;15.30;57.30
3699;DHT22;1865;50.918;7.092;2023-05-02T01:54:07;15.20;56.90
3699;DHT22;1865;50.918;7.092;2023-05-02T01:56:35;15.30;56.50
3699;DHT22;1865;50.918;7.092;2023-05-02T01:59:14;15.20;56.70
3699;DHT22;1865;50.918;7.092;2023-05-02T02:01:42;15.20;56.80
3699;DHT22;1865;50.918;7.092;2023-05-02T02:04:10;15.20;56.70
3699;DHT22;1865;50.918;7.092;2023-05-02T02:06:38;15.10;57.00
3699;DHT22;1865;50.918;7.092;2023-05-02T02:09:04;15.10;57.10
3699;DHT22;1865;50.918;7.092;2023-05-02T02:11:35;15.20;56.90
3699;DHT22;1865;50.918;7.092;2023-05-02T02:14:06;15.10;57.00
3699;DHT22;1865;50.918;7.092;2023-05-02T02:16:37;15.10;57.50
3699;DHT22;1865;50.918;7.092;2023-05-02T02:19:07;15.10;57.40
3699;DHT22;1865;50.918;7.092;2023-05-02T02:21:35;15.10;57.30
3699;DHT22;1865;50.918;7.092;2023-05-02T02:24:04;15.20;57.20
3699;DHT22;1865;50.918;7.092;2023-05-02T02:26:30;15.20;57.00
3699;DHT22;1865;50.918;7.092;2023-05-02T02:28:56;15.20;56.90
3699;DHT22;1865;50.918;7.092;2023-05-02T02:31:21;15.30;57.00
3699;DHT22;1865;50.918;7.092;2023-05-02T02:33:49;15.30;56.90
3699;DHT22;1865;50.918;7.092;2023-05-02T02:36:24;15.30;56.60
3699;DHT22;1865;50.918;7.092;2023-05-02T02:39:12;15.30;56.90
3699;DHT22;1865;50.918;7.092;2023-05-02T02:42:13;15.20;56.80
3699;DHT22;1865;50.918;7.092;2023-05-02T02:44:42;15.10;57.10
3699;DHT22;1865;50.918;7.092;2023-05-02T02:50:29;15.10;57.30
3699;DHT22;1865;50.918;7.092;2023-05-02T02:53:10;15.10;57.40
3699;DHT22;1865;50.918;7.092;2023-05-02T02:55:46;15.00;57.50
3699;DHT22;1865;50.918;7.092;2023-05-02T03:01:04;15.10;57.10
3699;DHT22;1865;50.918;7.092;2023-05-02T03:03:31;15.10;57.50
3699;DHT22;1865;50.918;7.092;2023-05-02T03:05:58;15.10;57.30
3699;DHT22;1865;50.918;7.092;2023-05-02T03:08:24;15.00;57.10
3699;DHT22;1865;50.918;7.092;2023-05-02T03:10:49;15.10;57.50
3699;DHT22;1865;50.918;7.092;2023-05-02T03:13:15;15.10;57.50
3699;DHT22;1865;50.918;7.092;2023-05-02T03:18:16;15.30;56.70
3699;DHT22;1865;50.918;7.092;2023-05-02T03:20:42;15.30;56.40
3699;DHT22;1865;50.918;7.092;2023-05-02T03:23:07;15.20;56.70
3699;DHT22;1865;50.918;7.092;2023-05-02T03:25:33;15.20;56.70
3699;DHT22;1865;50.918;7.092;2023-05-02T03:27:58;15.20;56.50
3699;DHT22;1865;50.918;7.092;2023-05-02T03:30:24;15.20;56.70
3699;DHT22;1865;50.918;7.092;2023-05-02T03:32:50;15.40;56.70
3699;DHT22;1865;50.918;7.092;2023-05-02T03:35:15;15.40;56.30
3699;DHT22;1865;50.918;7.092;2023-05-02T03:37:41;15.40;56.30
3699;DHT22;1865;50.918;7.092;2023-05-02T03:40:07;15.50;56.20
3699;DHT22;1865;50.918;7.092;2023-05-02T03:42:36;15.50;56.10
3699;DHT22;1865;50.918;7.092;2023-05-02T03:45:05;15.40;56.20
3699;DHT22;1865;50.918;7.092;2023-05-02T03:47:31;15.50;56.20
3699;DHT22;1865;50.918;7.092;2023-05-02T03:49:56;15.60;56.10
3699;DHT22;1865;50.918;7.092;2023-05-02T03:52:23;15.60;56.00
3699;DHT22;1865;50.918;7.092;2023-05-02T03:54:49;15.60;55.90
3699;DHT22;1865;50.918;7.092;2023-05-02T03:57:15;15.60;56.10
3699;DHT22;1865;50.918;7.092;2023-05-02T03:59:40;15.60;56.10
3699;DHT22;1865;50.918;7.092;2023-05-02T04:02:07;15.60;56.20
3699;DHT22;1865;50.918;7.092;2023-05-02T04:04:33;15.60;56.10
3699;DHT22;1865;50.918;7.092;2023-05-02T04:06:59;15.60;56.00
3699;DHT22;1865;50.918;7.092;2023-05-02T04:09:24;15.60;56.00
3699;DHT22;1865;50.918;7.092;2023-05-02T04:11:50;15.60;55.90
3699;DHT22;1865;50.918;7.092;2023-05-02T04:14:16;15.70;55.90
3699;DHT22;1865;50.918;7.092;2023-05-02T04:16:52;15.70;55.70
3699;DHT22;1865;50.918;7.092;2023-05-02T04:19:18;15.70;55.80
3699;DHT22;1865;50.918;7.092;2023-05-02T04:21:44;15.70;55.60
3699;DHT22;1865;50.918;7.092;2023-05-02T04:24:10;15.70;55.90
3699;DHT22;1865;50.918;7.092;2023-05-02T04:26:36;15.70;56.10
3699;DHT22;1865;50.918;7.092;2023-05-02T04:29:02;15.70;56.20
3699;DHT22;1865;50.918;7.092;2023-05-02T04:31:30;15.70;56.10
3699;DHT22;1865;50.918;7.092;2023-05-02T04:33:55;15.80;56.10
3699;DHT22;1865;50.918;7.092;2023-05-02T04:36:21;15.80;56.10
3699;DHT22;1865;50.918;7.092;2023-05-02T04:38:46;15.80;56.30
3699;DHT22;1865;50.918;7.092;2023-05-02T04:41:13;15.80;56.30
3699;DHT22;1865;50.918;7.092;2023-05-02T04:43:38;15.80;56.40
3699;DHT22;1865;50.918;7.092;2023-05-02T04:46:04;15.80;56.30
3699;DHT22;1865;50.918;7.092;2023-05-02T04:48:30;15.80;56.50
3699;DHT22;1865;50.918;7.092;2023-05-02T04:50:55;15.80;56.50
3699;DHT22;1865;50.918;7.092;2023-05-02T04:53:21;15.80;56.50
3699;DHT22;1865;50.918;7.092;2023-05-02T04:55:47;15.80;56.50
3699;DHT22;1865;50.918;7.092;2023-05-02T04:58:13;15.80;56.70
3699;DHT22;1865;50.918;7.092;2023-05-02T05:00:39;15.80;56.50
3699;DHT22;1865;50.918;7.092;2023-05-02T05:03:04;15.80;56.50
3699;DHT22;1865;50.918;7.092;2023-05-02T05:05:32;15.80;56.40
3699;DHT22;1865;50.918;7.092;2023-05-02T05:07:58;15.80;56.60
3699;DHT22;1865;50.918;7.092;2023-05-02T05:10:24;15.90;56.70
3699;DHT22;1865;50.918;7.092;2023-05-02T05:12:49;15.80;56.50
3699;DHT22;1865;50.918;7.092;2023-05-02T05:15:15;15.90;56.60
3699;DHT22;1865;50.918;7.092;2023-05-02T05:17:41;15.90;56.80
3699;DHT22;1865;50.918;7.092;2023-05-02T05:20:07;15.90;56.60
3699;DHT22;1865;50.918;7.092;2023-05-02T05:22:40;15.90;56.40
3699;DHT22;1865;50.918;7.092;2023-05-02T05:25:07;16.00;55.90
3699;DHT22;1865;50.918;7.092;2023-05-02T05:27:33;16.00;55.80
3699;DHT22;1865;50.918;7.092;2023-05-02T05:29:59;16.00;55.70
3699;DHT22;1865;50.918;7.092;2023-05-02T05:32:24;16.00;55.50
3699;DHT22;1865;50.918;7.092;2023-05-02T05:34:53;15.90;55.50
3699;DHT22;1865;50.918;7.092;2023-05-02T05:37:19;16.00;55.50
3699;DHT22;1865;50.918;7.092;2023-05-02T05:39:46;15.90;55.10
3699;DHT22;1865;50.918;7.092;2023-05-02T05:42:11;15.80;55.80
3699;DHT22;1865;50.918;7.092;2023-05-02T05:44:37;15.80;55.60
3699;DHT22;1865;50.918;7.092;2023-05-02T05:47:03;15.90;56.10
3699;DHT22;1865;50.918;7.092;2023-05-02T05:49:29;15.90;55.80
3699;DHT22;1865;50.918;7.092;2023-05-02T05:51:55;15.90;55.60
3699;DHT22;1865;50.918;7.092;2023-05-02T05:54:20;16.00;55.50
3699;DHT22;1865;50.918;7.092;2023-05-02T05:56:46;16.00;55.50
3699;DHT22;1865;50.918;7.092;2023-05-02T05:59:12;15.90;55.70
3699;DHT22;1865;50.918;7.092;2023-05-02T06:01:37;15.80;55.50
3699;DHT22;1865;50.918;7.092;2023-05-02T06:04:03;15.70;55.70
3699;DHT22;1865;50.918;7.092;2023-05-02T06:06:29;15.80;56.10
3699;DHT22;1865;50.918;7.092;2023-05-02T06:08:56;15.90;55.80
3699;DHT22;1865;50.918;7.092;2023-05-02T06:11:22;15.90;55.60
3699;DHT22;1865;50.918;7.092;2023-05-02T06:13:51;15.90;56.10
3699;DHT22;1865;50.918;7.092;2023-05-02T06:16:18;16.00;56.10
3699;DHT22;1865;50.918;7.092;2023-05-02T06:18:44;16.00;56.00
3699;DHT22;1865;50.918;7.092;2023-05-02T06:21:10;16.10;56.50
3699;DHT22;1865;50.918;7.092;2023-05-02T06:23:35;16.10;56.90
3699;DHT22;1865;50.918;7.092;2023-05-02T06:26:02;16.00;56.30
3699;DHT22;1865;50.918;7.092;2023-05-02T06:28:28;16.10;56.20
3699;DHT22;1865;50.918;7.092;2023-05-02T06:30:58;16.10;56.10
3699;DHT22;1865;50.918;7.092;2023-05-02T06:33:25;16.20;55.90
3699;DHT22;1865;50.918;7.092;2023-05-02T06:35:51;16.10;56.30
3699;DHT22;1865;50.918;7.092;2023-05-02T06:38:20;16.20;56.20
3699;DHT22;1865;50.918;7.092;2023-05-02T06:40:46;16.20;55.80
3699;DHT22;1865;50.918;7.092;2023-05-02T06:43:12;16.10;55.90
3699;DHT22;1865;50.918;7.092;2023-05-02T06:45:38;16.10;55.70
3699;DHT22;1865;50.918;7.092;2023-05-02T06:48:05;15.90;56.60
3699;DHT22;1865;50.918;7.092;2023-05-02T06:50:30;15.80;57.20
3699;DHT22;1865;50.918;7.092;2023-05-02T06:52:56;15.80;57.70
3699;DHT22;1865;50.918;7.092;2023-05-02T06:55:21;15.80;57.60
3699;DHT22;1865;50.918;7.092;2023-05-02T06:57:50;15.80;58.70
3699;DHT22;1865;50.918;7.092;2023-05-02T07:00:17;15.80;58.00
3699;DHT22;1865;50.918;7.092;2023-05-02T07:02:48;15.70;58.40
3699;DHT22;1865;50.918;7.092;2023-05-02T07:05:14;15.70;58.90
3699;DHT22;1865;50.918;7.092;2023-05-02T07:07:43;15.70;59.00
3699;DHT22;1865;50.918;7.092;2023-05-02T07:10:10;15.60;58.80
3699;DHT22;1865;50.918;7.092;2023-05-02T07:12:36;15.70;59.10
3699;DHT22;1865;50.918;7.092;2023-05-02T07:15:05;15.60;58.90
3699;DHT22;1865;50.918;7.092;2023-05-02T07:17:30;15.50;59.40
3699;DHT22;1865;50.918;7.092;2023-05-02T07:19:56;15.60;59.80
3699;DHT22;1865;50.918;7.092;2023-05-02T07:22:22;15.60;59.70
3699;DHT22;1865;50.918;7.092;2023-05-02T07:24:48;15.60;59.40
3699;DHT22;1865;50.918;7.092;2023-05-02T07:27:21;15.60;59.60
3699;DHT22;1865;50.918;7.092;2023-05-02T07:29:46;15.70;59.80
3699;DHT22;1865;50.918;7.092;2023-05-02T07:32:12;15.70;59.70
3699;DHT22;1865;50.918;7.092;2023-05-02T07:34:37;15.80;59.60
3699;DHT22;1865;50.918;7.092;2023-05-02T07:37:03;15.80;59.50
3699;DHT22;1865;50.918;7.092;2023-05-02T07:39:28;15.90;59.30
3699;DHT22;1865;50.918;7.092;2023-05-02T07:41:54;15.80;59.10
3699;DHT22;1865;50.918;7.092;2023-05-02T07:44:20;16.00;59.40
3699;DHT22;1865;50.918;7.092;2023-05-02T07:46:46;16.10;58.30
3699;DHT22;1865;50.918;7.092;2023-05-02T07:49:12;16.00;58.50
3699;DHT22;1865;50.918;7.092;2023-05-02T07:51:38;15.90;58.20
3699;DHT22;1865;50.918;7.092;2023-05-02T07:54:15;15.70;57.10
3699;DHT22;1865;50.918;7.092;2023-05-02T07:56:41;15.70;56.40
3699;DHT22;1865;50.918;7.092;2023-05-02T07:59:07;15.70;56.00
3699;DHT22;1865;50.918;7.092;2023-05-02T08:01:33;15.70;56.20
3699;DHT22;1865;50.918;7.092;2023-05-02T08:03:59;15.70;55.80
3699;DHT22;1865;50.918;7.092;2023-05-02T08:06:25;15.70;56.00
3699;DHT22;1865;50.918;7.092;2023-05-02T08:08:51;15.60;55.20
3699;DHT22;1865;50.918;7.092;2023-05-02T08:11:16;15.60;56.60
3699;DHT22;1865;50.918;7.092;2023-05-02T08:13:42;15.70;55.30
3699;DHT22;1865;50.918;7.092;2023-05-02T08:16:07;15.70;55.00
3699;DHT22;1865;50.918;7.092;2023-05-02T08:18:33;15.70;54.90
3699;DHT22;1865;50.918;7.092;2023-05-02T08:20:58;15.80;55.30
3699;DHT22;1865;50.918;7.092;2023-05-02T08:23:24;15.80;54.60
3699;DHT22;1865;50.918;7.092;2023-05-02T08:25:49;15.80;54.90
3699;DHT22;1865;50.918;7.092;2023-05-02T08:28:15;15.90;54.20
3699;DHT22;1865;50.918;7.092;2023-05-02T08:30:40;15.90;54.60
3699;DHT22;1865;50.918;7.092;2023-05-02T08:33:06;16.10;54.60
3699;DHT22;1865;50.918;7.092;2023-05-02T08:35:31;16.20;54.20
3699;DHT22;1865;50.918;7.092;2023-05-02T08:37:57;16.30;53.50
3699;DHT22;1865;50.918;7.092;2023-05-02T08:40:22;16.40;53.00
3699;DHT22;1865;50.918;7.092;2023-05-02T08:42:48;16.40;53.00
3699;DHT22;1865;50.918;7.092;2023-05-02T08:45:15;16.50;53.00
3699;DHT22;1865;50.918;7.092;2023-05-02T08:47:41;16.50;52.60
3699;DHT22;1865;50.918;7.092;2023-05-02T08:50:10;16.60;52.30
3699;DHT22;1865;50.918;7.092;2023-05-02T08:52:36;16.70;52.60
3699;DHT22;1865;50.918;7.092;2023-05-02T08:55:03;16.80;51.80
3699;DHT22;1865;50.918;7.092;2023-05-02T08:57:30;16.70;50.90
3699;DHT22;1865;50.918;7.092;2023-05-02T08:59:56;16.60;51.30
3699;DHT22;1865;50.918;7.092;2023-05-02T09:02:33;16.40;51.10
3699;DHT22;1865;50.918;7.092;2023-05-02T09:05:05;16.30;51.40
3699;DHT22;1865;50.918;7.092;2023-05-02T09:07:46;16.30;51.50
3699;DHT22;1865;50.918;7.092;2023-05-02T09:10:12;16.30;51.50
3699;DHT22;1865;50.918;7.092;2023-05-02T09:12:38;16.40;51.10
3699;DHT22;1865;50.918;7.092;2023-05-02T09:15:14;16.40;51.80
3699;DHT22;1865;50.918;7.092;2023-05-02T09:17:44;16.40;50.40
3699;DHT22;1865;50.918;7.092;2023-05-02T09:20:14;16.60;50.20
3699;DHT22;1865;50.918;7.092;2023-05-02T09:22:50;16.60;49.10
3699;DHT22;1865;50.918;7.092;2023-05-02T09:25:17;16.50;48.90
3699;DHT22;1865;50.918;7.092;2023-05-02T09:27:52;16.50;48.90
3699;DHT22;1865;50.918;7.092;2023-05-02T09:30:22;16.50;49.10
3699;DHT22;1865;50.918;7.092;2023-05-02T09:32:49;16.50;49.40
3699;DHT22;1865;50.918;7.092;2023-05-02T09:35:21;16.20;49.00
3699;DHT22;1865;50.918;7.092;2023-05-02T09:37:57;16.10;48.90
3699;DHT22;1865;50.918;7.092;2023-05-02T09:40:23;16.00;48.70
3699;DHT22;1865;50.918;7.092;2023-05-02T09:42:51;15.90;48.50
3699;DHT22;1865;50.918;7.092;2023-05-02T09:45:21;15.90;48.60
3699;DHT22;1865;50.918;7.092;2023-05-02T09:47:48;15.80;48.40
3699;DHT22;1865;50.918;7.092;2023-05-02T09:50:34;15.80;48.60
3699;DHT22;1865;50.918;7.092;2023-05-02T09:53:01;16.00;49.30
3699;DHT22;1865;50.918;7.092;2023-05-02T09:55:27;16.00;48.00
3699;DHT22;1865;50.918;7.092;2023-05-02T09:57:52;16.10;48.60
3699;DHT22;1865;50.918;7.092;2023-05-02T10:00:18;16.20;48.30
3699;DHT22;1865;50.918;7.092;2023-05-02T10:02:46;16.30;48.90
3699;DHT22;1865;50.918;7.092;2023-05-02T10:05:14;16.40;47.90
3699;DHT22;1865;50.918;7.092;2023-05-02T10:07:42;16.50;47.70
3699;DHT22;1865;50.918;7.092;2023-05-02T10:10:14;16.50;47.60
3699;DHT22;1865;50.918;7.092;2023-05-02T10:12:41;16.40;47.60
3699;DHT22;1865;50.918;7.092;2023-05-02T10:15:08;16.50;47.50
3699;DHT22;1865;50.918;7.092;2023-05-02T10:17:39;16.50;47.20
3699;DHT22;1865;50.918;7.092;2023-05-02T10:20:10;16.60;47.00
3699;DHT22;1865;50.918;7.092;2023-05-02T10:22:40;16.80;46.40
3699;DHT22;1865;50.918;7.092;2023-05-02T10:25:07;17.00;45.40
3699;DHT22;1865;50.918;7.092;2023-05-02T10:27:33;17.10;45.60
3699;DHT22;1865;50.918;7.092;2023-05-02T10:29:59;17.10;44.10
3699;DHT22;1865;50.918;7.092;2023-05-02T10:32:30;17.00;44.50
3699;DHT22;1865;50.918;7.092;2023-05-02T10:35:01;17.10;43.80
3699;DHT22;1865;50.918;7.092;2023-05-02T10:37:28;17.20;44.20
3699;DHT22;1865;50.918;7.092;2023-05-02T10:39:54;17.20;44.90
3699;DHT22;1865;50.918;7.092;2023-05-02T10:42:19;17.20;43.40
3699;DHT22;1865;50.918;7.092;2023-05-02T10:44:45;17.30;43.20
3699;DHT22;1865;50.918;7.092;2023-05-02T10:47:21;17.40;42.20
3699;DHT22;1865;50.918;7.092;2023-05-02T10:49:51;17.40;42.20
3699;DHT22;1865;50.918;7.092;2023-05-02T10:52:35;17.50;42.50
3699;DHT22;1865;50.918;7.092;2023-05-02T10:55:21;17.50;40.90
3699;DHT22;1865;50.918;7.092;2023-05-02T11:00:24;17.50;41.30
3699;DHT22;1865;50.918;7.092;2023-05-02T11:02:50;17.60;41.40
3699;DHT22;1865;50.918;7.092;2023-05-02T11:05:16;17.60;42.00
3699;DHT22;1865;50.918;7.092;2023-05-02T11:07:42;17.60;42.00
3699;DHT22;1865;50.918;7.092;2023-05-02T11:12:49;17.50;41.80
3699;DHT22;1865;50.918;7.092;2023-05-02T11:18:03;17.30;41.70
3699;DHT22;1865;50.918;7.092;2023-05-02T11:20:32;17.30;42.20
3699;DHT22;1865;50.918;7.092;2023-05-02T11:23:20;17.40;42.50
3699;DHT22;1865;50.918;7.092;2023-05-02T11:25:54;17.60;42.40
3699;DHT22;1865;50.918;7.092;2023-05-02T11:31:01;18.10;41.60
3699;DHT22;1865;50.918;7.092;2023-05-02T11:33:30;18.30;40.80
3699;DHT22;1865;50.918;7.092;2023-05-02T11:35:55;18.30;40.40
3699;DHT22;1865;50.918;7.092;2023-05-02T11:38:23;18.40;39.80
3699;DHT22;1865;50.918;7.092;2023-05-02T11:40:50;18.50;38.10
3699;DHT22;1865;50.918;7.092;2023-05-02T11:43:18;18.60;37.00
3699;DHT22;1865;50.918;7.092;2023-05-02T11:45:44;19.00;36.30
3699;DHT22;1865;50.918;7.092;2023-05-02T11:48:11;19.20;35.60
3699;DHT22;1865;50.918;7.092;2023-05-02T11:50:45;19.20;35.60
3699;DHT22;1865;50.918;7.092;2023-05-02T11:53:16;19.10;35.30
3699;DHT22;1865;50.918;7.092;2023-05-02T11:55:47;19.20;35.70
3699;DHT22;1865;50.918;7.092;2023-05-02T11:58:17;19.20;36.40
3699;DHT22;1865;50.918;7.092;2023-05-02T12:00:44;19.10;36.20
3699;DHT22;1865;50.918;7.092;2023-05-02T12:03:30;19.00;36.10
3699;DHT22;1865;50.918;7.092;2023-05-02T12:05:57;19.00;36.40
3699;DHT22;1865;50.918;7.092;2023-05-02T12:08:32;19.10;37.40
3699;DHT22;1865;50.918;7.092;2023-05-02T12:10:57;19.30;36.00
3699;DHT22;1865;50.918;7.092;2023-05-02T12:13:24;19.30;35.10
3699;DHT22;1865;50.918;7.092;2023-05-02T12:15:51;19.20;34.80
3699;DHT22;1865;50.918;7.092;2023-05-02T12:18:19;19.30;35.50
3699;DHT22;1865;50.918;7.092;2023-05-02T12:20:48;19.30;35.20
3699;DHT22;1865;50.918;7.092;2023-05-02T12:23:14;19.30;34.90
3699;DHT22;1865;50.918;7.092;2023-05-02T12:25:41;19.30;34.80
3699;DHT22;1865;50.918;7.092;2023-05-02T12:28:08;19.20;36.40
3699;DHT22;1865;50.918;7.092;2023-05-02T12:30:34;19.40;35.30
3699;DHT22;1865;50.918;7.092;2023-05-02T12:33:03;19.60;34.80
3699;DHT22;1865;50.918;7.092;2023-05-02T12:35:30;19.80;33.80
3699;DHT22;1865;50.918;7.092;2023-05-02T12:38:11;19.80;34.30
3699;DHT22;1865;50.918;7.092;2023-05-02T12:40:38;19.60;32.80
3699;DHT22;1865;50.918;7.092;2023-05-02T12:43:04;19.40;34.30
3699;DHT22;1865;50.918;7.092;2023-05-02T12:45:35;19.20;34.00
3699;DHT22;1865;50.918;7.092;2023-05-02T12:48:01;18.90;34.00
3699;DHT22;1865;50.918;7.092;2023-05-02T12:50:34;18.80;35.80
3699;DHT22;1865;50.918;7.092;2023-05-02T12:53:01;18.50;35.80
3699;DHT22;1865;50.918;7.092;2023-05-02T12:55:28;18.40;36.80
3699;DHT22;1865;50.918;7.092;2023-05-02T12:58:04;18.40;36.70
3699;DHT22;1865;50.918;7.092;2023-05-02T13:00:31;18.40;36.40
3699;DHT22;1865;50.918;7.092;2023-05-02T13:02:57;18.30;36.10
3699;DHT22;1865;50.918;7.092;2023-05-02T13:05:22;18.30;35.90
3699;DHT22;1865;50.918;7.092;2023-05-02T13:07:48;18.40;35.80
3699;DHT22;1865;50.918;7.092;2023-05-02T13:10:14;18.60;36.00
3699;DHT22;1865;50.918;7.092;2023-05-02T13:12:42;19.10;35.20
3699;DHT22;1865;50.918;7.092;2023-05-02T13:15:08;19.90;34.60
3699;DHT22;1865;50.918;7.092;2023-05-02T13:17:34;20.50;32.60
3699;DHT22;1865;50.918;7.092;2023-05-02T13:20:00;20.90;32.40
3699;DHT22;1865;50.918;7.092;2023-05-02T13:22:26;22.40;30.30
3699;DHT22;1865;50.918;7.092;2023-05-02T13:24:52;22.80;29.00
3699;DHT22;1865;50.918;7.092;2023-05-02T13:27:18;23.30;26.90
3699;DHT22;1865;50.918;7.092;2023-05-02T13:29:44;23.10;26.80
3699;DHT22;1865;50.918;7.092;2023-05-02T13:32:10;22.60;27.20
3699;DHT22;1865;50.918;7.092;2023-05-02T13:34:36;22.30;28.00
3699;DHT22;1865;50.918;7.092;2023-05-02T13:37:01;22.20;27.80
3699;DHT22;1865;50.918;7.092;2023-05-02T13:39:27;21.90;27.60
3699;DHT22;1865;50.918;7.092;2023-05-02T13:41:53;21.50;28.30
3699;DHT22;1865;50.918;7.092;2023-05-02T13:44:18;21.10;28.10
3699;DHT22;1865;50.918;7.092;2023-05-02T13:46:44;20.60;29.00
3699;DHT22;1865;50.918;7.092;2023-05-02T13:49:09;20.30;30.50
3699;DHT22;1865;50.918;7.092;2023-05-02T13:51:35;20.00;30.00
3699;DHT22;1865;50.918;7.092;2023-05-02T13:54:01;19.90;30.20
3699;DHT22;1865;50.918;7.092;2023-05-02T13:56:26;19.70;30.30
3699;DHT22;1865;50.918;7.092;2023-05-02T13:58:52;19.90;30.80
3699;DHT22;1865;50.918;7.092;2023-05-02T14:01:18;19.80;29.90
3699;DHT22;1865;50.918;7.092;2023-05-02T14:03:43;19.80;30.00
3699;DHT22;1865;50.918;7.092;2023-05-02T14:06:09;20.00;30.50
3699;DHT22;1865;50.918;7.092;2023-05-02T14:08:34;20.30;30.10
3699;DHT22;1865;50.918;7.092;2023-05-02T14:11:00;20.50;29.10
3699;DHT22;1865;50.918;7.092;2023-05-02T14:13:26;20.60;27.80
3699;DHT22;1865;50.918;7.092;2023-05-02T14:15:52;20.50;27.90
3699;DHT22;1865;50.918;7.092;2023-05-02T14:18:18;20.50;28.70
3699;DHT22;1865;50.918;7.092;2023-05-02T14:20:43;20.50;27.90
3699;DHT22;1865;50.918;7.092;2023-05-02T14:23:09;20.30;27.20
3699;DHT22;1865;50.918;7.092;2023-05-02T14:25:35;20.10;28.40
3699;DHT22;1865;50.918;7.092;2023-05-02T14:28:01;19.90;28.10
3699;DHT22;1865;50.918;7.092;2023-05-02T14:30:27;19.90;28.00
3699;DHT22;1865;50.918;7.092;2023-05-02T14:32:53;19.80;28.40
3699;DHT22;1865;50.918;7.092;2023-05-02T14:35:18;19.50;28.30
3699;DHT22;1865;50.918;7.092;2023-05-02T14:37:44;19.50;28.50
3699;DHT22;1865;50.918;7.092;2023-05-02T14:40:11;19.40;28.70
3699;DHT22;1865;50.918;7.092;2023-05-02T14:42:41;19.40;29.80
3699;DHT22;1865;50.918;7.092;2023-05-02T14:45:08;19.40;28.80
3699;DHT22;1865;50.918;7.092;2023-05-02T14:47:34;19.40;29.20
3699;DHT22;1865;50.918;7.092;2023-05-02T14:50:00;19.30;28.90
3699;DHT22;1865;50.918;7.092;2023-05-02T14:52:26;19.20;28.90
3699;DHT22;1865;50.918;7.092;2023-05-02T14:54:52;19.10;29.80
3699;DHT22;1865;50.918;7.092;2023-05-02T14:57:17;19.00;29.30
3699;DHT22;1865;50.918;7.092;2023-05-02T14:59:43;18.90;29.20
3699;DHT22;1865;50.918;7.092;2023-05-02T15:02:09;18.90;29.40
3699;DHT22;1865;50.918;7.092;2023-05-02T15:04:35;18.90;29.80
3699;DHT22;1865;50.918;7.092;2023-05-02T15:07:01;19.10;29.70
3699;DHT22;1865;50.918;7.092;2023-05-02T15:09:26;19.20;28.90
3699;DHT22;1865;50.918;7.092;2023-05-02T15:11:52;19.20;28.30
3699;DHT22;1865;50.918;7.092;2023-05-02T15:14:18;19.30;28.60
3699;DHT22;1865;50.918;7.092;2023-05-02T15:16:43;19.30;28.80
3699;DHT22;1865;50.918;7.092;2023-05-02T15:19:09;19.20;27.50
3699;DHT22;1865;50.918;7.092;2023-05-02T15:21:35;19.10;27.50
3699;DHT22;1865;50.918;7.092;2023-05-02T15:24:01;19.10;27.40
3699;DHT22;1865;50.918;7.092;2023-05-02T15:26:27;19.20;27.60
3699;DHT22;1865;50.918;7.092;2023-05-02T15:28:53;19.20;27.20
3699;DHT22;1865;50.918;7.092;2023-05-02T15:31:19;19.10;27.40
3699;DHT22;1865;50.918;7.092;2023-05-02T15:33:44;19.00;27.00
3699;DHT22;1865;50.918;7.092;2023-05-02T15:36:10;19.10;27.40
3699;DHT22;1865;50.918;7.092;2023-05-02T15:38:36;19.00;26.90
3699;DHT22;1865;50.918;7.092;2023-05-02T15:41:04;19.00;27.20
3699;DHT22;1865;50.918;7.092;2023-05-02T15:43:30;19.30;27.90
3699;DHT22;1865;50.918;7.092;2023-05-02T15:45:58;19.30;26.70
3699;DHT22;1865;50.918;7.092;2023-05-02T15:48:27;19.30;26.90
3699;DHT22;1865;50.918;7.092;2023-05-02T15:50:52;19.40;26.60
3699;DHT22;1865;50.918;7.092;2023-05-02T15:53:18;19.30;26.40
3699;DHT22;1865;50.918;7.092;2023-05-02T15:55:46;19.30;27.30
3699;DHT22;1865;50.918;7.092;2023-05-02T15:58:12;19.10;26.20
3699;DHT22;1865;50.918;7.092;2023-05-02T16:00:38;19.20;27.20
3699;DHT22;1865;50.918;7.092;2023-05-02T16:03:04;19.20;27.40
3699;DHT22;1865;50.918;7.092;2023-05-02T16:05:31;19.20;27.20
3699;DHT22;1865;50.918;7.092;2023-05-02T16:07:58;19.10;26.80
3699;DHT22;1865;50.918;7.092;2023-05-02T16:10:23;19.00;27.00
3699;DHT22;1865;50.918;7.092;2023-05-02T16:12:49;18.90;27.40
3699;DHT22;1865;50.918;7.092;2023-05-02T16:15:14;18.90;27.40
3699;DHT22;1865;50.918;7.092;2023-05-02T16:17:40;18.90;27.30
3699;DHT22;1865;50.918;7.092;2023-05-02T16:20:07;18.90;26.80
3699;DHT22;1865;50.918;7.092;2023-05-02T16:22:33;19.10;26.00
3699;DHT22;1865;50.918;7.092;2023-05-02T16:24:58;19.00;26.30
3699;DHT22;1865;50.918;7.092;2023-05-02T16:27:24;19.10;26.90